sensor_id;sensor_type;location;lat;lon;timestamp;P1;durP1;ratioP1;P2;durP2;ratioP2
61085;SDS011;46967;48.876;2.136;2023-03-01T00:00:18;8.75;;;5.40;;
61085;SDS011;46967;48.876;2.136;2023-03-01T00:02:44;11.25;;;6.63;;
61085;SDS011;46967;48.876;2.136;2023-03-01T00:05:09;11.57;;;6.30;;
61085;SDS011;46967;48.876;2.136;2023-03-01T00:07:35;8.50;;;5.45;;
61085;SDS011;46967;48.876;2.136;2023-03-01T00:10:00;8.52;;;5.50;;
61085;SDS011;46967;48.876;2.136;2023-03-01T00:12:25;7.63;;;5.30;;
61085;SDS011;46967;48.876;2.136;2023-03-01T00:14:51;9.02;;;5.32;;
61085;SDS011;46967;48.876;2.136;2023-03-01T00:17:16;9.85;;;5.68;;
61085;SDS011;46967;48.876;2.136;2023-03-01T00:19:42;10.00;;;5.38;;
61085;SDS011;46967;48.876;2.136;2023-03-01T00:22:07;8.85;;;5.70;;
61085;SDS011;46967;48.876;2.136;2023-03-01T00:24:32;6.90;;;5.15;;
61085;SDS011;46967;48.876;2.136;2023-03-01T00:26:58;8.00;;;5.15;;
61085;SDS011;46967;48.876;2.136;2023-03-01T00:29:23;6.72;;;5.00;;
61085;SDS011;46967;48.876;2.136;2023-03-01T00:31:49;8.75;;;5.60;;
61085;SDS011;46967;48.876;2.136;2023-03-01T00:34:14;6.72;;;5.15;;
61085;SDS011;46967;48.876;2.136;2023-03-01T00:36:40;10.38;;;5.25;;
61085;SDS011;46967;48.876;2.136;2023-03-01T00:39:07;9.30;;;5.32;;
61085;SDS011;46967;48.876;2.136;2023-03-01T00:41:35;8.38;;;5.50;;
61085;SDS011;46967;48.876;2.136;2023-03-01T00:44:01;9.60;;;5.43;;
61085;SDS011;46967;48.876;2.136;2023-03-01T00:46:26;8.38;;;5.55;;
61085;SDS011;46967;48.876;2.136;2023-03-01T00:48:52;9.48;;;5.38;;
61085;SDS011;46967;48.876;2.136;2023-03-01T00:51:23;10.82;;;5.60;;
61085;SDS011;46967;48.876;2.136;2023-03-01T00:53:53;6.82;;;5.03;;
61085;SDS011;46967;48.876;2.136;2023-03-01T00:56:20;7.55;;;5.40;;
61085;SDS011;46967;48.876;2.136;2023-03-01T00:58:46;8.68;;;6.10;;
61085;SDS011;46967;48.876;2.136;2023-03-01T01:01:15;12.15;;;5.63;;
61085;SDS011;46967;48.876;2.136;2023-03-01T01:06:18;10.07;;;5.75;;
61085;SDS011;46967;48.876;2.136;2023-03-01T01:08:45;8.43;;;5.47;;
61085;SDS011;46967;48.876;2.136;2023-03-01T01:11:11;8.00;;;5.15;;
61085;SDS011;46967;48.876;2.136;2023-03-01T01:13:38;10.15;;;5.90;;
61085;SDS011;46967;48.876;2.136;2023-03-01T01:16:04;7.10;;;5.43;;
61085;SDS011;46967;48.876;2.136;2023-03-01T01:18:29;9.90;;;5.47;;
61085;SDS011;46967;48.876;2.136;2023-03-01T01:20:55;9.95;;;5.35;;
61085;SDS011;46967;48.876;2.136;2023-03-01T01:23:20;9.93;;;5.55;;
61085;SDS011;46967;48.876;2.136;2023-03-01T01:25:46;8.77;;;5.40;;
61085;SDS011;46967;48.876;2.136;2023-03-01T01:28:11;8.63;;;5.45;;
61085;SDS011;46967;48.876;2.136;2023-03-01T01:30:36;10.65;;;6.18;;
61085;SDS011;46967;48.876;2.136;2023-03-01T01:33:02;7.85;;;5.55;;
61085;SDS011;46967;48.876;2.136;2023-03-01T01:35:27;8.23;;;5.30;;
61085;SDS011;46967;48.876;2.136;2023-03-01T01:37:53;8.85;;;5.93;;
61085;SDS011;46967;48.876;2.136;2023-03-01T01:40:18;10.57;;;5.57;;
61085;SDS011;46967;48.876;2.136;2023-03-01T01:42:43;11.57;;;6.25;;
61085;SDS011;46967;48.876;2.136;2023-03-01T01:45:26;10.30;;;5.82;;
61085;SDS011;46967;48.876;2.136;2023-03-01T01:47:55;9.85;;;6.10;;
61085;SDS011;46967;48.876;2.136;2023-03-01T01:50:35;10.40;;;5.68;;
61085;SDS011;46967;48.876;2.136;2023-03-01T01:53:22;8.93;;;5.18;;
61085;SDS011;46967;48.876;2.136;2023-03-01T01:55:53;9.18;;;5.75;;
61085;SDS011;46967;48.876;2.136;2023-03-01T01:58:22;10.85;;;6.10;;
61085;SDS011;46967;48.876;2.136;2023-03-01T02:00:50;10.90;;;5.80;;
61085;SDS011;46967;48.876;2.136;2023-03-01T02:03:20;7.55;;;5.38;;
61085;SDS011;46967;48.876;2.136;2023-03-01T02:05:55;9.82;;;5.88;;
61085;SDS011;46967;48.876;2.136;2023-03-01T02:08:27;10.18;;;5.75;;
61085;SDS011;46967;48.876;2.136;2023-03-01T02:10:55;10.35;;;5.80;;
61085;SDS011;46967;48.876;2.136;2023-03-01T02:13:22;9.15;;;5.72;;
61085;SDS011;46967;48.876;2.136;2023-03-01T02:15:47;9.93;;;5.47;;
61085;SDS011;46967;48.876;2.136;2023-03-01T02:18:14;8.32;;;6.18;;
61085;SDS011;46967;48.876;2.136;2023-03-01T02:23:27;10.82;;;5.82;;
61085;SDS011;46967;48.876;2.136;2023-03-01T02:25:58;7.80;;;5.70;;
61085;SDS011;46967;48.876;2.136;2023-03-01T02:28:33;10.55;;;5.88;;
61085;SDS011;46967;48.876;2.136;2023-03-01T02:31:04;7.32;;;5.45;;
61085;SDS011;46967;48.876;2.136;2023-03-01T02:33:51;8.95;;;5.75;;
61085;SDS011;46967;48.876;2.136;2023-03-01T02:36:28;9.00;;;5.97;;
61085;SDS011;46967;48.876;2.136;2023-03-01T02:38:58;8.38;;;5.80;;
61085;SDS011;46967;48.876;2.136;2023-03-01T02:41:26;8.43;;;5.90;;
61085;SDS011;46967;48.876;2.136;2023-03-01T02:43:56;6.55;;;5.05;;
61085;SDS011;46967;48.876;2.136;2023-03-01T02:46:23;10.15;;;5.90;;
61085;SDS011;46967;48.876;2.136;2023-03-01T02:48:54;9.02;;;5.80;;
61085;SDS011;46967;48.876;2.136;2023-03-01T02:56:56;7.05;;;5.18;;
61085;SDS011;46967;48.876;2.136;2023-03-01T02:59:24;8.85;;;6.18;;
61085;SDS011;46967;48.876;2.136;2023-03-01T03:01:53;9.68;;;5.80;;
61085;SDS011;46967;48.876;2.136;2023-03-01T03:04:19;10.13;;;6.57;;
61085;SDS011;46967;48.876;2.136;2023-03-01T03:06:46;8.00;;;5.93;;
61085;SDS011;46967;48.876;2.136;2023-03-01T03:09:13;8.32;;;6.00;;
61085;SDS011;46967;48.876;2.136;2023-03-01T03:11:39;9.35;;;6.15;;
61085;SDS011;46967;48.876;2.136;2023-03-01T03:14:06;9.60;;;6.20;;
61085;SDS011;46967;48.876;2.136;2023-03-01T03:16:38;11.05;;;5.90;;
61085;SDS011;46967;48.876;2.136;2023-03-01T03:19:07;9.25;;;6.32;;
61085;SDS011;46967;48.876;2.136;2023-03-01T03:21:33;11.63;;;6.35;;
61085;SDS011;46967;48.876;2.136;2023-03-01T03:23:59;8.25;;;5.55;;
61085;SDS011;46967;48.876;2.136;2023-03-01T03:26:25;9.55;;;6.13;;
61085;SDS011;46967;48.876;2.136;2023-03-01T03:28:50;11.07;;;6.70;;
61085;SDS011;46967;48.876;2.136;2023-03-01T03:31:16;10.77;;;6.38;;
61085;SDS011;46967;48.876;2.136;2023-03-01T03:33:41;11.77;;;7.05;;
61085;SDS011;46967;48.876;2.136;2023-03-01T03:36:07;10.55;;;6.15;;
61085;SDS011;46967;48.876;2.136;2023-03-01T03:38:38;10.18;;;6.70;;
61085;SDS011;46967;48.876;2.136;2023-03-01T03:41:05;10.27;;;6.65;;
61085;SDS011;46967;48.876;2.136;2023-03-01T03:43:33;11.60;;;6.78;;
61085;SDS011;46967;48.876;2.136;2023-03-01T03:46:00;9.70;;;6.82;;
61085;SDS011;46967;48.876;2.136;2023-03-01T03:48:25;10.55;;;6.30;;
61085;SDS011;46967;48.876;2.136;2023-03-01T03:50:55;10.45;;;6.57;;
61085;SDS011;46967;48.876;2.136;2023-03-01T03:53:22;8.63;;;5.78;;
61085;SDS011;46967;48.876;2.136;2023-03-01T03:55:49;9.95;;;6.13;;
61085;SDS011;46967;48.876;2.136;2023-03-01T03:58:14;9.93;;;6.57;;
61085;SDS011;46967;48.876;2.136;2023-03-01T04:00:42;8.93;;;6.13;;
61085;SDS011;46967;48.876;2.136;2023-03-01T04:03:10;8.93;;;6.82;;
61085;SDS011;46967;48.876;2.136;2023-03-01T04:05:37;10.13;;;6.40;;
61085;SDS011;46967;48.876;2.136;2023-03-01T04:08:03;9.32;;;6.10;;
61085;SDS011;46967;48.876;2.136;2023-03-01T04:10:33;8.13;;;6.15;;
61085;SDS011;46967;48.876;2.136;2023-03-01T04:13:11;8.30;;;6.45;;
61085;SDS011;46967;48.876;2.136;2023-03-01T04:15:38;11.15;;;6.18;;
61085;SDS011;46967;48.876;2.136;2023-03-01T04:18:05;9.70;;;6.45;;
61085;SDS011;46967;48.876;2.136;2023-03-01T04:20:31;11.35;;;6.57;;
61085;SDS011;46967;48.876;2.136;2023-03-01T04:23:01;9.43;;;6.35;;
61085;SDS011;46967;48.876;2.136;2023-03-01T04:25:57;11.48;;;6.55;;
61085;SDS011;46967;48.876;2.136;2023-03-01T04:28:32;8.10;;;5.68;;
61085;SDS011;46967;48.876;2.136;2023-03-01T04:31:05;9.93;;;6.18;;
61085;SDS011;46967;48.876;2.136;2023-03-01T04:33:48;9.73;;;6.40;;
61085;SDS011;46967;48.876;2.136;2023-03-01T04:36:19;10.20;;;6.20;;
61085;SDS011;46967;48.876;2.136;2023-03-01T04:38:46;8.50;;;6.13;;
61085;SDS011;46967;48.876;2.136;2023-03-01T04:41:12;9.85;;;6.80;;
61085;SDS011;46967;48.876;2.136;2023-03-01T04:43:39;9.30;;;6.43;;
61085;SDS011;46967;48.876;2.136;2023-03-01T04:46:05;10.10;;;6.50;;
61085;SDS011;46967;48.876;2.136;2023-03-01T04:48:34;8.05;;;5.97;;
61085;SDS011;46967;48.876;2.136;2023-03-01T04:51:00;10.02;;;6.05;;
61085;SDS011;46967;48.876;2.136;2023-03-01T04:53:26;9.13;;;6.07;;
61085;SDS011;46967;48.876;2.136;2023-03-01T04:55:51;9.55;;;6.30;;
61085;SDS011;46967;48.876;2.136;2023-03-01T04:58:19;9.63;;;6.32;;
61085;SDS011;46967;48.876;2.136;2023-03-01T05:00:44;9.30;;;6.28;;
61085;SDS011;46967;48.876;2.136;2023-03-01T05:03:10;11.63;;;6.13;;
61085;SDS011;46967;48.876;2.136;2023-03-01T05:05:36;8.88;;;6.40;;
61085;SDS011;46967;48.876;2.136;2023-03-01T05:08:04;11.68;;;6.72;;
61085;SDS011;46967;48.876;2.136;2023-03-01T05:10:32;12.02;;;6.68;;
61085;SDS011;46967;48.876;2.136;2023-03-01T05:13:00;10.77;;;6.28;;
61085;SDS011;46967;48.876;2.136;2023-03-01T05:15:26;8.48;;;6.05;;
61085;SDS011;46967;48.876;2.136;2023-03-01T05:17:53;9.27;;;6.20;;
61085;SDS011;46967;48.876;2.136;2023-03-01T05:20:23;9.20;;;6.47;;
61085;SDS011;46967;48.876;2.136;2023-03-01T05:22:49;10.43;;;6.22;;
61085;SDS011;46967;48.876;2.136;2023-03-01T05:25:15;14.80;;;6.20;;
61085;SDS011;46967;48.876;2.136;2023-03-01T05:27:40;9.65;;;6.72;;
61085;SDS011;46967;48.876;2.136;2023-03-01T05:30:06;8.82;;;6.13;;
61085;SDS011;46967;48.876;2.136;2023-03-01T05:32:42;9.88;;;6.43;;
61085;SDS011;46967;48.876;2.136;2023-03-01T05:35:10;9.88;;;6.97;;
61085;SDS011;46967;48.876;2.136;2023-03-01T05:37:41;12.88;;;7.90;;
61085;SDS011;46967;48.876;2.136;2023-03-01T05:40:11;10.07;;;6.32;;
61085;SDS011;46967;48.876;2.136;2023-03-01T05:45:11;12.52;;;7.47;;
61085;SDS011;46967;48.876;2.136;2023-03-01T05:47:37;11.10;;;7.72;;
61085;SDS011;46967;48.876;2.136;2023-03-01T05:50:19;11.40;;;7.22;;
61085;SDS011;46967;48.876;2.136;2023-03-01T05:52:47;11.52;;;7.35;;
61085;SDS011;46967;48.876;2.136;2023-03-01T05:55:15;13.00;;;7.82;;
61085;SDS011;46967;48.876;2.136;2023-03-01T05:57:42;10.60;;;6.90;;
61085;SDS011;46967;48.876;2.136;2023-03-01T06:00:08;11.52;;;7.43;;
61085;SDS011;46967;48.876;2.136;2023-03-01T06:02:42;11.15;;;7.35;;
61085;SDS011;46967;48.876;2.136;2023-03-01T06:05:08;12.20;;;6.97;;
61085;SDS011;46967;48.876;2.136;2023-03-01T06:07:34;12.60;;;7.07;;
61085;SDS011;46967;48.876;2.136;2023-03-01T06:10:00;11.02;;;7.25;;
61085;SDS011;46967;48.876;2.136;2023-03-01T06:12:27;10.73;;;7.30;;
61085;SDS011;46967;48.876;2.136;2023-03-01T06:14:55;11.48;;;7.70;;
61085;SDS011;46967;48.876;2.136;2023-03-01T06:17:20;9.50;;;7.47;;
61085;SDS011;46967;48.876;2.136;2023-03-01T06:19:46;11.18;;;7.63;;
61085;SDS011;46967;48.876;2.136;2023-03-01T06:22:12;11.77;;;7.93;;
61085;SDS011;46967;48.876;2.136;2023-03-01T06:24:38;13.00;;;8.40;;
61085;SDS011;46967;48.876;2.136;2023-03-01T06:27:03;13.45;;;9.00;;
61085;SDS011;46967;48.876;2.136;2023-03-01T06:29:29;11.70;;;8.55;;
61085;SDS011;46967;48.876;2.136;2023-03-01T06:31:54;11.00;;;8.40;;
61085;SDS011;46967;48.876;2.136;2023-03-01T06:34:19;13.95;;;9.52;;
61085;SDS011;46967;48.876;2.136;2023-03-01T06:36:46;12.65;;;8.98;;
61085;SDS011;46967;48.876;2.136;2023-03-01T06:39:12;21.92;;;9.82;;
61085;SDS011;46967;48.876;2.136;2023-03-01T06:41:37;16.17;;;10.20;;
61085;SDS011;46967;48.876;2.136;2023-03-01T06:44:02;15.15;;;9.38;;
61085;SDS011;46967;48.876;2.136;2023-03-01T06:46:28;17.05;;;9.30;;
61085;SDS011;46967;48.876;2.136;2023-03-01T06:48:54;13.80;;;9.55;;
61085;SDS011;46967;48.876;2.136;2023-03-01T06:51:19;14.88;;;10.40;;
61085;SDS011;46967;48.876;2.136;2023-03-01T06:53:45;15.95;;;10.07;;
61085;SDS011;46967;48.876;2.136;2023-03-01T06:56:11;15.63;;;9.95;;
61085;SDS011;46967;48.876;2.136;2023-03-01T06:58:36;17.30;;;10.13;;
61085;SDS011;46967;48.876;2.136;2023-03-01T07:01:05;15.48;;;10.43;;
61085;SDS011;46967;48.876;2.136;2023-03-01T07:03:31;13.30;;;9.73;;
61085;SDS011;46967;48.876;2.136;2023-03-01T07:05:57;14.10;;;9.55;;
61085;SDS011;46967;48.876;2.136;2023-03-01T07:08:22;15.38;;;9.48;;
61085;SDS011;46967;48.876;2.136;2023-03-01T07:10:47;15.52;;;10.70;;
61085;SDS011;46967;48.876;2.136;2023-03-01T07:13:12;17.48;;;9.85;;
61085;SDS011;46967;48.876;2.136;2023-03-01T07:15:39;13.73;;;9.57;;
61085;SDS011;46967;48.876;2.136;2023-03-01T07:18:05;17.70;;;10.55;;
61085;SDS011;46967;48.876;2.136;2023-03-01T07:20:31;15.13;;;10.77;;
61085;SDS011;46967;48.876;2.136;2023-03-01T07:22:56;16.42;;;11.05;;
61085;SDS011;46967;48.876;2.136;2023-03-01T07:25:23;17.25;;;11.05;;
61085;SDS011;46967;48.876;2.136;2023-03-01T07:27:52;17.33;;;11.57;;
61085;SDS011;46967;48.876;2.136;2023-03-01T07:30:18;16.00;;;10.80;;
61085;SDS011;46967;48.876;2.136;2023-03-01T07:32:43;15.80;;;10.43;;
61085;SDS011;46967;48.876;2.136;2023-03-01T07:35:10;15.80;;;10.10;;
61085;SDS011;46967;48.876;2.136;2023-03-01T07:37:35;17.75;;;11.80;;
61085;SDS011;46967;48.876;2.136;2023-03-01T07:40:01;17.63;;;11.07;;
61085;SDS011;46967;48.876;2.136;2023-03-01T07:42:26;16.90;;;10.60;;
61085;SDS011;46967;48.876;2.136;2023-03-01T07:44:52;14.98;;;10.65;;
61085;SDS011;46967;48.876;2.136;2023-03-01T07:47:17;16.38;;;11.50;;
61085;SDS011;46967;48.876;2.136;2023-03-01T07:49:42;19.77;;;12.10;;
61085;SDS011;46967;48.876;2.136;2023-03-01T07:52:09;16.10;;;11.40;;
61085;SDS011;46967;48.876;2.136;2023-03-01T07:54:36;16.83;;;11.13;;
61085;SDS011;46967;48.876;2.136;2023-03-01T07:57:01;17.23;;;11.48;;
61085;SDS011;46967;48.876;2.136;2023-03-01T07:59:27;15.80;;;11.45;;
61085;SDS011;46967;48.876;2.136;2023-03-01T08:01:54;16.23;;;11.85;;
61085;SDS011;46967;48.876;2.136;2023-03-01T08:04:20;18.10;;;12.00;;
61085;SDS011;46967;48.876;2.136;2023-03-01T08:06:46;17.52;;;11.65;;
61085;SDS011;46967;48.876;2.136;2023-03-01T08:09:11;14.35;;;10.45;;
61085;SDS011;46967;48.876;2.136;2023-03-01T08:11:37;18.55;;;11.38;;
61085;SDS011;46967;48.876;2.136;2023-03-01T08:14:02;15.45;;;11.57;;
61085;SDS011;46967;48.876;2.136;2023-03-01T08:16:27;17.15;;;12.13;;
61085;SDS011;46967;48.876;2.136;2023-03-01T08:18:53;17.88;;;10.75;;
61085;SDS011;46967;48.876;2.136;2023-03-01T08:21:21;17.38;;;11.07;;
61085;SDS011;46967;48.876;2.136;2023-03-01T08:23:46;15.30;;;11.30;;
61085;SDS011;46967;48.876;2.136;2023-03-01T08:26:16;21.05;;;11.65;;
61085;SDS011;46967;48.876;2.136;2023-03-01T08:28:44;19.95;;;11.63;;
61085;SDS011;46967;48.876;2.136;2023-03-01T08:31:13;16.30;;;10.82;;
61085;SDS011;46967;48.876;2.136;2023-03-01T08:33:51;19.33;;;11.43;;
61085;SDS011;46967;48.876;2.136;2023-03-01T08:36:41;18.52;;;11.90;;
61085;SDS011;46967;48.876;2.136;2023-03-01T08:39:08;19.75;;;11.18;;
61085;SDS011;46967;48.876;2.136;2023-03-01T08:41:34;17.05;;;11.82;;
61085;SDS011;46967;48.876;2.136;2023-03-01T08:44:00;17.33;;;11.43;;
61085;SDS011;46967;48.876;2.136;2023-03-01T08:46:29;20.85;;;11.95;;
61085;SDS011;46967;48.876;2.136;2023-03-01T08:48:56;18.35;;;12.18;;
61085;SDS011;46967;48.876;2.136;2023-03-01T08:51:22;18.40;;;11.90;;
61085;SDS011;46967;48.876;2.136;2023-03-01T08:53:49;18.80;;;11.68;;
61085;SDS011;46967;48.876;2.136;2023-03-01T08:56:15;19.02;;;11.88;;
61085;SDS011;46967;48.876;2.136;2023-03-01T08:58:43;18.27;;;12.32;;
61085;SDS011;46967;48.876;2.136;2023-03-01T09:01:10;17.92;;;10.27;;
61085;SDS011;46967;48.876;2.136;2023-03-01T09:03:37;17.05;;;11.35;;
61085;SDS011;46967;48.876;2.136;2023-03-01T09:06:04;17.08;;;11.18;;
61085;SDS011;46967;48.876;2.136;2023-03-01T09:08:34;18.25;;;11.73;;
61085;SDS011;46967;48.876;2.136;2023-03-01T09:11:03;18.13;;;10.55;;
61085;SDS011;46967;48.876;2.136;2023-03-01T09:13:30;18.25;;;11.15;;
61085;SDS011;46967;48.876;2.136;2023-03-01T09:15:58;16.88;;;11.27;;
61085;SDS011;46967;48.876;2.136;2023-03-01T09:18:25;19.10;;;12.38;;
61085;SDS011;46967;48.876;2.136;2023-03-01T09:20:50;17.80;;;10.88;;
61085;SDS011;46967;48.876;2.136;2023-03-01T09:23:16;16.55;;;11.50;;
61085;SDS011;46967;48.876;2.136;2023-03-01T09:25:41;15.98;;;11.60;;
61085;SDS011;46967;48.876;2.136;2023-03-01T09:28:06;17.63;;;11.15;;
61085;SDS011;46967;48.876;2.136;2023-03-01T09:30:32;15.82;;;11.50;;
61085;SDS011;46967;48.876;2.136;2023-03-01T09:32:57;15.77;;;11.15;;
61085;SDS011;46967;48.876;2.136;2023-03-01T09:35:23;17.20;;;11.32;;
61085;SDS011;46967;48.876;2.136;2023-03-01T09:37:48;21.27;;;11.02;;
61085;SDS011;46967;48.876;2.136;2023-03-01T09:40:16;19.05;;;11.25;;
61085;SDS011;46967;48.876;2.136;2023-03-01T09:42:55;14.73;;;10.43;;
61085;SDS011;46967;48.876;2.136;2023-03-01T09:45:35;22.65;;;11.88;;
61085;SDS011;46967;48.876;2.136;2023-03-01T09:48:05;16.63;;;10.82;;
61085;SDS011;46967;48.876;2.136;2023-03-01T09:50:39;15.15;;;11.63;;
61085;SDS011;46967;48.876;2.136;2023-03-01T09:53:13;13.85;;;10.07;;
61085;SDS011;46967;48.876;2.136;2023-03-01T09:55:44;14.65;;;10.75;;
61085;SDS011;46967;48.876;2.136;2023-03-01T10:00:52;16.80;;;10.23;;
61085;SDS011;46967;48.876;2.136;2023-03-01T10:03:56;14.55;;;9.95;;
61085;SDS011;46967;48.876;2.136;2023-03-01T10:06:25;16.75;;;10.82;;
61085;SDS011;46967;48.876;2.136;2023-03-01T10:09:33;14.60;;;10.70;;
61085;SDS011;46967;48.876;2.136;2023-03-01T10:11:45;15.82;;;9.88;;
61085;SDS011;46967;48.876;2.136;2023-03-01T10:16:55;18.20;;;10.13;;
61085;SDS011;46967;48.876;2.136;2023-03-01T10:22:09;16.52;;;10.45;;
61085;SDS011;46967;48.876;2.136;2023-03-01T10:24:40;14.48;;;10.00;;
61085;SDS011;46967;48.876;2.136;2023-03-01T10:27:11;16.13;;;9.93;;
61085;SDS011;46967;48.876;2.136;2023-03-01T10:29:47;15.65;;;10.27;;
61085;SDS011;46967;48.876;2.136;2023-03-01T10:32:17;16.60;;;11.55;;
61085;SDS011;46967;48.876;2.136;2023-03-01T10:34:43;19.65;;;10.43;;
61085;SDS011;46967;48.876;2.136;2023-03-01T10:37:12;15.77;;;10.30;;
61085;SDS011;46967;48.876;2.136;2023-03-01T10:42:38;16.77;;;10.25;;
61085;SDS011;46967;48.876;2.136;2023-03-01T10:50:41;14.27;;;9.65;;
61085;SDS011;46967;48.876;2.136;2023-03-01T10:53:18;15.85;;;10.60;;
61085;SDS011;46967;48.876;2.136;2023-03-01T10:55:46;18.30;;;11.23;;
61085;SDS011;46967;48.876;2.136;2023-03-01T10:58:21;15.48;;;10.27;;
61085;SDS011;46967;48.876;2.136;2023-03-01T11:00:48;18.63;;;10.35;;
61085;SDS011;46967;48.876;2.136;2023-03-01T11:03:21;15.10;;;10.07;;
61085;SDS011;46967;48.876;2.136;2023-03-01T11:05:55;18.35;;;10.45;;
61085;SDS011;46967;48.876;2.136;2023-03-01T11:08:48;13.13;;;10.00;;
61085;SDS011;46967;48.876;2.136;2023-03-01T11:16:37;15.70;;;9.90;;
61085;SDS011;46967;48.876;2.136;2023-03-01T11:21:39;13.30;;;9.80;;
61085;SDS011;46967;48.876;2.136;2023-03-01T11:24:09;14.00;;;10.27;;
61085;SDS011;46967;48.876;2.136;2023-03-01T11:26:42;15.82;;;9.95;;
61085;SDS011;46967;48.876;2.136;2023-03-01T11:29:45;16.15;;;11.48;;
61085;SDS011;46967;48.876;2.136;2023-03-01T11:32:08;17.55;;;10.90;;
61085;SDS011;46967;48.876;2.136;2023-03-01T11:34:43;14.65;;;9.65;;
61085;SDS011;46967;48.876;2.136;2023-03-01T11:37:21;16.40;;;10.88;;
61085;SDS011;46967;48.876;2.136;2023-03-01T11:40:17;16.85;;;10.55;;
61085;SDS011;46967;48.876;2.136;2023-03-01T11:46:08;14.30;;;9.88;;
61085;SDS011;46967;48.876;2.136;2023-03-01T11:48:53;15.07;;;10.43;;
61085;SDS011;46967;48.876;2.136;2023-03-01T11:57:17;14.52;;;9.68;;
61085;SDS011;46967;48.876;2.136;2023-03-01T12:08:36;15.50;;;10.75;;
61085;SDS011;46967;48.876;2.136;2023-03-01T12:11:11;15.13;;;11.13;;
61085;SDS011;46967;48.876;2.136;2023-03-01T12:13:48;14.48;;;10.25;;
61085;SDS011;46967;48.876;2.136;2023-03-01T12:19:01;13.73;;;10.15;;
61085;SDS011;46967;48.876;2.136;2023-03-01T12:27:10;15.20;;;9.63;;
61085;SDS011;46967;48.876;2.136;2023-03-01T12:29:42;16.73;;;10.45;;
61085;SDS011;46967;48.876;2.136;2023-03-01T12:34:51;18.42;;;10.77;;
61085;SDS011;46967;48.876;2.136;2023-03-01T12:37:42;16.13;;;10.60;;
61085;SDS011;46967;48.876;2.136;2023-03-01T12:42:59;13.18;;;9.73;;
61085;SDS011;46967;48.876;2.136;2023-03-01T12:48:46;13.38;;;9.73;;
61085;SDS011;46967;48.876;2.136;2023-03-01T12:51:24;15.60;;;9.98;;
61085;SDS011;46967;48.876;2.136;2023-03-01T12:53:53;14.90;;;10.30;;
61085;SDS011;46967;48.876;2.136;2023-03-01T12:56:27;15.87;;;10.00;;
61085;SDS011;46967;48.876;2.136;2023-03-01T12:59:15;13.60;;;9.57;;
61085;SDS011;46967;48.876;2.136;2023-03-01T13:10:05;12.20;;;9.40;;
61085;SDS011;46967;48.876;2.136;2023-03-01T13:17:48;15.77;;;9.98;;
61085;SDS011;46967;48.876;2.136;2023-03-01T13:20:18;13.68;;;10.05;;
61085;SDS011;46967;48.876;2.136;2023-03-01T13:22:46;15.40;;;9.52;;
61085;SDS011;46967;48.876;2.136;2023-03-01T13:25:19;14.95;;;10.57;;
61085;SDS011;46967;48.876;2.136;2023-03-01T13:27:45;15.48;;;10.27;;
61085;SDS011;46967;48.876;2.136;2023-03-01T13:33:33;14.32;;;10.18;;
61085;SDS011;46967;48.876;2.136;2023-03-01T13:36:05;15.35;;;10.23;;
61085;SDS011;46967;48.876;2.136;2023-03-01T13:44:11;19.27;;;10.48;;
61085;SDS011;46967;48.876;2.136;2023-03-01T13:49:09;14.40;;;9.60;;
61085;SDS011;46967;48.876;2.136;2023-03-01T13:51:39;15.73;;;10.27;;
61085;SDS011;46967;48.876;2.136;2023-03-01T13:54:04;14.90;;;10.80;;
61085;SDS011;46967;48.876;2.136;2023-03-01T13:56:35;15.30;;;10.77;;
61085;SDS011;46967;48.876;2.136;2023-03-01T13:59:02;14.50;;;11.02;;
61085;SDS011;46967;48.876;2.136;2023-03-01T14:01:32;19.63;;;10.00;;
61085;SDS011;46967;48.876;2.136;2023-03-01T14:04:00;14.10;;;9.65;;
61085;SDS011;46967;48.876;2.136;2023-03-01T14:06:27;15.43;;;10.43;;
61085;SDS011;46967;48.876;2.136;2023-03-01T14:09:03;15.68;;;10.48;;
61085;SDS011;46967;48.876;2.136;2023-03-01T14:11:57;14.57;;;10.63;;
61085;SDS011;46967;48.876;2.136;2023-03-01T14:14:39;16.08;;;10.68;;
61085;SDS011;46967;48.876;2.136;2023-03-01T14:19:57;16.67;;;10.10;;
61085;SDS011;46967;48.876;2.136;2023-03-01T14:22:29;17.52;;;10.68;;
61085;SDS011;46967;48.876;2.136;2023-03-01T14:24:58;14.98;;;10.25;;
61085;SDS011;46967;48.876;2.136;2023-03-01T14:27:28;13.25;;;10.13;;
61085;SDS011;46967;48.876;2.136;2023-03-01T14:30:09;15.05;;;10.38;;
61085;SDS011;46967;48.876;2.136;2023-03-01T14:32:39;13.00;;;9.75;;
61085;SDS011;46967;48.876;2.136;2023-03-01T14:35:25;14.65;;;9.95;;
61085;SDS011;46967;48.876;2.136;2023-03-01T14:37:52;14.80;;;10.40;;
61085;SDS011;46967;48.876;2.136;2023-03-01T14:40:28;15.45;;;9.88;;
61085;SDS011;46967;48.876;2.136;2023-03-01T14:42:56;14.27;;;10.25;;
61085;SDS011;46967;48.876;2.136;2023-03-01T14:45:24;14.88;;;10.55;;
61085;SDS011;46967;48.876;2.136;2023-03-01T14:47:52;13.05;;;9.05;;
61085;SDS011;46967;48.876;2.136;2023-03-01T14:50:27;13.98;;;9.13;;
61085;SDS011;46967;48.876;2.136;2023-03-01T14:52:59;13.60;;;9.80;;
61085;SDS011;46967;48.876;2.136;2023-03-01T14:55:29;18.63;;;9.95;;
61085;SDS011;46967;48.876;2.136;2023-03-01T14:57:57;18.95;;;9.73;;
61085;SDS011;46967;48.876;2.136;2023-03-01T15:00:25;12.20;;;9.95;;
61085;SDS011;46967;48.876;2.136;2023-03-01T15:02:55;15.98;;;10.15;;
61085;SDS011;46967;48.876;2.136;2023-03-01T15:05:25;17.08;;;10.68;;
61085;SDS011;46967;48.876;2.136;2023-03-01T15:07:54;16.30;;;10.27;;
61085;SDS011;46967;48.876;2.136;2023-03-01T15:10:23;16.15;;;9.90;;
61085;SDS011;46967;48.876;2.136;2023-03-01T15:12:50;16.80;;;10.73;;
61085;SDS011;46967;48.876;2.136;2023-03-01T15:18:04;18.88;;;10.70;;
61085;SDS011;46967;48.876;2.136;2023-03-01T15:20:50;14.18;;;10.80;;
61085;SDS011;46967;48.876;2.136;2023-03-01T15:23:18;15.30;;;10.88;;
61085;SDS011;46967;48.876;2.136;2023-03-01T15:25:52;16.05;;;10.70;;
61085;SDS011;46967;48.876;2.136;2023-03-01T15:28:29;14.48;;;10.52;;
61085;SDS011;46967;48.876;2.136;2023-03-01T15:30:57;14.73;;;10.70;;
61085;SDS011;46967;48.876;2.136;2023-03-01T15:33:30;13.48;;;10.32;;
61085;SDS011;46967;48.876;2.136;2023-03-01T15:35:58;14.65;;;10.00;;
61085;SDS011;46967;48.876;2.136;2023-03-01T15:38:36;16.20;;;9.98;;
61085;SDS011;46967;48.876;2.136;2023-03-01T15:43:55;15.18;;;9.68;;
61085;SDS011;46967;48.876;2.136;2023-03-01T15:46:31;15.27;;;8.95;;
61085;SDS011;46967;48.876;2.136;2023-03-01T15:49:02;11.85;;;9.02;;
61085;SDS011;46967;48.876;2.136;2023-03-01T15:51:35;14.20;;;9.55;;
61085;SDS011;46967;48.876;2.136;2023-03-01T15:54:06;15.13;;;9.13;;
61085;SDS011;46967;48.876;2.136;2023-03-01T15:56:42;14.30;;;9.52;;
61085;SDS011;46967;48.876;2.136;2023-03-01T15:59:08;12.82;;;9.00;;
61085;SDS011;46967;48.876;2.136;2023-03-01T16:01:36;11.68;;;9.32;;
61085;SDS011;46967;48.876;2.136;2023-03-01T16:04:02;13.70;;;9.15;;
61085;SDS011;46967;48.876;2.136;2023-03-01T16:06:27;14.98;;;8.82;;
61085;SDS011;46967;48.876;2.136;2023-03-01T16:08:52;14.18;;;8.98;;
61085;SDS011;46967;48.876;2.136;2023-03-01T16:11:19;12.20;;;9.00;;
61085;SDS011;46967;48.876;2.136;2023-03-01T16:13:45;13.15;;;9.00;;
61085;SDS011;46967;48.876;2.136;2023-03-01T16:16:11;12.43;;;8.80;;
61085;SDS011;46967;48.876;2.136;2023-03-01T16:18:40;11.40;;;8.67;;
61085;SDS011;46967;48.876;2.136;2023-03-01T16:21:06;11.07;;;8.93;;
61085;SDS011;46967;48.876;2.136;2023-03-01T16:23:31;12.25;;;8.55;;
61085;SDS011;46967;48.876;2.136;2023-03-01T16:26:00;12.13;;;8.88;;
61085;SDS011;46967;48.876;2.136;2023-03-01T16:28:25;12.73;;;9.02;;
61085;SDS011;46967;48.876;2.136;2023-03-01T16:30:51;12.55;;;9.00;;